Para de Minas, Brazil
Current Conditions -  °F | °C
As of 3:00 PM on Tuesday 21 Oct 2014 (Local Time) from SBBH Reporting Station
Broken Clouds Broken Clouds  
Wind Chill: 77°   Ceiling: 3000
Heat Index: 79°   Visibility: 6mi
Dew Point: 59°   Wind: 13mph
Humidity: 54%   Direction: 90°E
Pressure: 30.06"   Gusts: NA
Location:  19.84°S, 44.61°W
Report Text: SBBH 211700Z 09011KT 9999 BKN030 25/15 Q1018
Loading
Personal Weather Stations






























Interactive Weather Map
Tropical Storm Tracking
New forecast layout! Learn more

10-Day Weather Forecast

Advertisements
Track Severe Weather on mobile